Time;durP1;ratioP1;P1;durP2;ratioP2;P2;SDS_P1;SDS_P2;PMS_P1;PMS_P2;Temp;Humidity;BMP_temperature;BMP_pressure;BME280_temperature;BME280_humidity;BME280_pressure;Samples;Min_cycle;Max_cycle;Signal;HPM_P1;HPM_P2
2022/08/01 00:00:13;;;;;;;3.20;1.88;;;18.30;99.90;;;;;;4994662;28;20060;-83
2022/08/01 00:02:40;;;;;;;3.97;1.90;;;18.30;99.90;;;;;;5016198;28;20111;-83
2022/08/01 00:05:07;;;;;;;4.35;2.47;;;18.30;99.90;;;;;;5000624;28;20106;-81
2022/08/01 00:07:36;;;;;;;3.10;1.60;;;18.30;99.90;;;;;;5000698;28;20048;-80
2022/08/01 00:10:08;;;;;;;2.72;1.70;;;18.30;99.90;;;;;;5014880;28;20041;-80
2022/08/01 00:12:34;;;;;;;2.75;1.70;;;18.20;99.90;;;;;;5005967;28;20421;-81
2022/08/01 00:15:00;;;;;;;3.00;1.58;;;18.30;99.90;;;;;;5014625;28;20070;-80
2022/08/01 00:17:26;;;;;;;2.40;1.33;;;18.20;99.90;;;;;;5016812;28;20069;-80
2022/08/01 00:19:52;;;;;;;2.10;1.10;;;18.20;99.90;;;;;;5014210;28;20053;-80
2022/08/01 00:22:17;;;;;;;3.28;1.70;;;18.30;99.90;;;;;;5017443;28;20049;-81
2022/08/01 00:24:43;;;;;;;3.17;1.85;;;18.20;99.90;;;;;;5016607;28;20404;-81
2022/08/01 00:27:09;;;;;;;3.08;1.35;;;18.20;99.90;;;;;;4996286;28;20488;-81
2022/08/01 00:29:34;;;;;;;2.53;1.40;;;18.20;99.90;;;;;;5010217;28;20041;-81
2022/08/01 00:32:00;;;;;;;3.05;1.35;;;18.20;99.90;;;;;;5012303;28;20475;-81
2022/08/01 00:34:26;;;;;;;2.30;1.38;;;18.20;99.90;;;;;;4970706;28;20112;-81
2022/08/01 00:36:51;;;;;;;2.83;1.65;;;18.20;99.90;;;;;;4962756;28;20046;-81
2022/08/01 00:39:17;;;;;;;1.85;1.15;;;18.20;99.90;;;;;;5008427;28;20052;-81
2022/08/01 00:41:43;;;;;;;1.98;1.10;;;18.20;99.90;;;;;;4982190;28;20547;-81
2022/08/01 00:44:08;;;;;;;3.03;1.00;;;18.20;99.90;;;;;;5016026;28;20029;-81
2022/08/01 00:46:34;;;;;;;1.95;1.10;;;18.20;99.90;;;;;;4999635;28;20124;-81
2022/08/01 00:49:01;;;;;;;2.58;0.95;;;18.10;99.90;;;;;;4997260;28;20172;-80
2022/08/01 00:51:27;;;;;;;2.08;1.15;;;18.10;99.90;;;;;;4998359;28;20111;-81
2022/08/01 00:53:53;;;;;;;2.97;1.40;;;18.10;99.90;;;;;;5017548;28;20050;-83
2022/08/01 00:56:21;;;;;;;2.75;1.15;;;18.00;99.90;;;;;;5017532;28;20041;-83
2022/08/01 00:58:47;;;;;;;1.77;1.17;;;18.10;99.90;;;;;;5016208;28;20087;-84
2022/08/01 01:01:13;;;;;;;5.80;1.73;;;18.10;99.90;;;;;;5008449;28;20092;-83
2022/08/01 01:03:39;;;;;;;2.30;1.30;;;18.00;99.90;;;;;;4995475;28;20132;-84
2022/08/01 01:06:21;;;;;;;3.33;1.65;;;18.00;99.90;;;;;;4995553;28;20455;-83
2022/08/01 01:09:10;;;;;;;1.27;1.00;;;18.00;99.90;;;;;;5015843;28;20042;-83
2022/08/01 01:11:52;;;;;;;3.92;1.30;;;18.00;99.90;;;;;;4987460;28;20111;-81
2022/08/01 01:14:53;;;;;;;3.50;1.50;;;17.90;99.90;;;;;;5016463;28;20053;-80
2022/08/01 01:17:26;;;;;;;5.32;1.50;;;18.00;99.90;;;;;;5004791;28;20064;-80
2022/08/01 01:19:55;;;;;;;4.38;1.20;;;17.90;99.90;;;;;;5013715;28;20045;-80
2022/08/01 01:22:43;;;;;;;3.78;1.20;;;17.90;99.90;;;;;;5006057;28;20050;-80
2022/08/01 01:25:40;;;;;;;1.65;1.05;;;17.90;99.90;;;;;;5026432;28;20033;-81
2022/08/01 01:28:41;;;;;;;2.58;1.08;;;17.80;99.90;;;;;;5008730;28;20383;-80
2022/08/01 01:31:10;;;;;;;2.75;1.50;;;17.80;99.90;;;;;;4996490;28;20049;-80
2022/08/01 01:33:39;;;;;;;1.15;0.70;;;17.80;99.90;;;;;;5027400;28;20446;-80
2022/08/01 01:36:09;;;;;;;1.85;1.15;;;17.80;99.90;;;;;;4996479;28;20113;-80
2022/08/01 01:38:41;;;;;;;0.98;0.80;;;17.70;99.90;;;;;;4992183;28;20361;-80
2022/08/01 01:41:10;;;;;;;1.90;0.77;;;17.70;99.90;;;;;;5015360;28;20042;-80
2022/08/01 01:43:37;;;;;;;1.25;0.90;;;17.70;99.90;;;;;;4999353;28;20049;-83
2022/08/01 01:46:04;;;;;;;1.75;0.80;;;17.70;99.90;;;;;;5012625;28;20127;-83
2022/08/01 01:48:32;;;;;;;0.93;0.80;;;17.70;99.90;;;;;;5011989;28;20167;-83
2022/08/01 01:51:00;;;;;;;0.55;0.55;;;17.60;99.90;;;;;;5015637;28;20111;-83
2022/08/01 01:53:28;;;;;;;1.77;0.88;;;17.60;99.90;;;;;;4997887;28;20053;-83
2022/08/01 01:55:57;;;;;;;0.90;0.77;;;17.60;99.90;;;;;;5011585;28;20281;-83
2022/08/01 01:58:25;;;;;;;2.38;0.70;;;17.60;99.90;;;;;;5016659;28;20404;-83
2022/08/01 02:00:55;;;;;;;2.38;0.80;;;17.60;99.90;;;;;;5001971;28;20400;-81
2022/08/01 02:03:23;;;;;;;1.02;0.45;;;17.60;99.90;;;;;;5000022;28;20500;-81
2022/08/01 02:05:53;;;;;;;1.13;0.68;;;17.50;99.90;;;;;;4986576;28;20462;-81
2022/08/01 02:08:20;;;;;;;0.75;0.55;;;17.50;99.90;;;;;;5014236;28;20045;-81
2022/08/01 02:11:17;;;;;;;1.65;0.73;;;17.50;99.90;;;;;;5019248;28;20458;-81
2022/08/01 02:13:34;;;;;;;2.15;0.90;;;17.50;99.90;;;;;;4988624;28;20034;-81
2022/08/01 02:16:01;;;;;;;2.00;1.10;;;17.50;99.90;;;;;;5030668;28;20488;-81
2022/08/01 02:18:27;;;;;;;1.08;0.80;;;17.50;99.90;;;;;;5019480;28;20471;-83
2022/08/01 02:20:55;;;;;;;1.15;0.80;;;17.50;99.90;;;;;;5002893;28;20386;-83
2022/08/01 02:23:23;;;;;;;1.20;0.70;;;17.40;99.90;;;;;;5002778;28;20044;-83
2022/08/01 02:25:52;;;;;;;1.52;0.68;;;17.40;99.90;;;;;;5018908;28;20196;-83
2022/08/01 02:28:29;;;;;;;2.67;0.90;;;17.50;99.90;;;;;;5001551;28;20396;-83
2022/08/01 02:31:04;;;;;;;1.00;0.50;;;17.40;99.90;;;;;;5018738;28;20045;-82
2022/08/01 02:33:42;;;;;;;1.73;0.70;;;17.40;99.90;;;;;;5019246;28;20037;-83
2022/08/01 02:36:10;;;;;;;4.45;1.20;;;17.40;99.90;;;;;;5019313;28;20287;-82
2022/08/01 02:38:40;;;;;;;1.30;0.85;;;17.40;99.90;;;;;;5016702;28;20041;-82
2022/08/01 02:41:09;;;;;;;1.25;0.90;;;17.40;99.90;;;;;;5019344;28;20449;-83
2022/08/01 02:43:43;;;;;;;2.53;1.42;;;17.40;99.90;;;;;;4999239;28;20053;-82
2022/08/01 02:46:15;;;;;;;2.40;1.23;;;17.30;99.90;;;;;;4999502;28;20042;-82
2022/08/01 02:48:43;;;;;;;2.10;1.02;;;17.30;99.90;;;;;;5009692;28;20483;-83
2022/08/01 02:51:11;;;;;;;3.08;0.95;;;17.30;99.90;;;;;;5019200;28;20383;-83
2022/08/01 02:53:40;;;;;;;2.38;1.27;;;17.30;99.90;;;;;;5018408;28;20046;-83
2022/08/01 02:56:10;;;;;;;4.88;1.08;;;17.30;99.90;;;;;;5018940;28;20042;-83
2022/08/01 02:58:37;;;;;;;1.90;1.00;;;17.20;99.90;;;;;;5017309;28;20415;-83
2022/08/01 03:01:05;;;;;;;3.40;1.38;;;17.20;99.90;;;;;;5015712;28;20080;-83
2022/08/01 03:03:32;;;;;;;6.43;1.42;;;17.20;99.90;;;;;;4998988;28;20100;-83
2022/08/01 03:05:59;;;;;;;1.38;0.98;;;17.20;99.90;;;;;;5014321;28;20088;-83
2022/08/01 03:08:26;;;;;;;1.63;0.90;;;17.20;99.90;;;;;;5016273;28;20038;-80
2022/08/01 03:10:53;;;;;;;2.65;1.20;;;17.10;99.90;;;;;;5017903;28;20128;-80
2022/08/01 03:13:21;;;;;;;1.77;1.13;;;17.10;99.90;;;;;;4999115;28;20472;-80
2022/08/01 03:15:48;;;;;;;2.85;1.23;;;17.10;99.90;;;;;;5012963;28;20052;-80
2022/08/01 03:18:15;;;;;;;3.70;1.00;;;17.10;99.90;;;;;;4991861;28;20128;-80
2022/08/01 03:20:42;;;;;;;6.22;1.73;;;17.10;99.90;;;;;;4986202;28;20046;-80
2022/08/01 03:23:11;;;;;;;1.60;1.15;;;17.10;99.90;;;;;;5000323;28;20127;-82
2022/08/01 03:25:40;;;;;;;1.55;1.15;;;17.00;99.90;;;;;;5017566;28;20030;-82
2022/08/01 03:28:07;;;;;;;6.03;1.63;;;17.00;99.90;;;;;;5018163;28;20409;-83
2022/08/01 03:30:36;;;;;;;2.58;1.40;;;17.00;99.90;;;;;;5016249;28;20105;-83
2022/08/01 03:33:03;;;;;;;3.50;1.77;;;17.10;99.90;;;;;;5018316;28;20041;-82
2022/08/01 03:35:34;;;;;;;2.65;1.70;;;17.00;99.90;;;;;;5018200;28;20401;-82
2022/08/01 03:38:02;;;;;;;2.20;1.20;;;17.00;99.90;;;;;;5017733;28;20045;-82
2022/08/01 03:40:44;;;;;;;5.20;1.88;;;17.00;99.90;;;;;;5001256;28;20045;-82
2022/08/01 03:43:20;;;;;;;4.03;1.73;;;17.00;99.90;;;;;;5017729;28;20140;-82
2022/08/01 03:45:51;;;;;;;4.22;1.38;;;17.00;99.90;;;;;;5001306;28;20037;-82
2022/08/01 03:48:19;;;;;;;4.15;1.75;;;17.00;99.90;;;;;;5018575;28;20036;-82
2022/08/01 03:50:51;;;;;;;4.25;1.50;;;17.00;99.90;;;;;;4998333;28;20046;-83
2022/08/01 03:53:22;;;;;;;4.50;1.60;;;16.90;99.90;;;;;;5001230;28;20043;-82
2022/08/01 03:55:49;;;;;;;4.95;1.70;;;16.90;99.90;;;;;;5017474;28;20045;-82
2022/08/01 03:58:15;;;;;;;2.45;1.02;;;16.90;99.90;;;;;;5000857;28;20124;-80
2022/08/01 04:00:42;;;;;;;4.88;1.50;;;16.90;99.90;;;;;;5016299;28;20057;-80
2022/08/01 04:03:09;;;;;;;5.95;1.92;;;16.90;99.90;;;;;;5016119;28;20059;-80
2022/08/01 04:05:35;;;;;;;4.15;1.50;;;16.90;99.90;;;;;;5017006;28;20041;-79
2022/08/01 04:08:02;;;;;;;5.18;1.90;;;16.90;99.90;;;;;;5000318;28;20056;-79
2022/08/01 04:10:29;;;;;;;5.78;1.60;;;16.90;99.90;;;;;;5001166;28;20045;-80
2022/08/01 04:12:54;;;;;;;3.42;1.33;;;16.90;99.90;;;;;;4999549;28;20103;-80
2022/08/01 04:15:20;;;;;;;1.65;1.13;;;16.80;99.90;;;;;;5000512;28;20438;-80
2022/08/01 04:17:47;;;;;;;1.90;1.30;;;16.80;99.90;;;;;;4999631;28;20042;-80
2022/08/01 04:20:13;;;;;;;4.40;2.00;;;16.80;99.90;;;;;;5013116;28;20038;-79
2022/08/01 04:22:39;;;;;;;3.33;1.40;;;16.70;99.90;;;;;;4984550;28;20403;-80
2022/08/01 04:25:27;;;;;;;3.67;1.27;;;16.70;99.90;;;;;;5015895;28;20046;-80
2022/08/01 04:27:54;;;;;;;4.68;1.30;;;16.70;99.90;;;;;;5016568;28;20041;-79
2022/08/01 04:30:25;;;;;;;2.03;1.38;;;16.70;99.90;;;;;;5016971;28;20044;-82
2022/08/01 04:32:54;;;;;;;2.28;1.13;;;16.70;99.90;;;;;;5015132;28;20030;-82
2022/08/01 04:35:21;;;;;;;6.75;2.00;;;16.70;99.90;;;;;;5016914;28;20408;-82
2022/08/01 04:37:48;;;;;;;8.07;2.10;;;16.70;99.90;;;;;;5017023;28;20128;-82
2022/08/01 04:40:15;;;;;;;3.55;1.20;;;16.70;99.90;;;;;;5016743;28;20045;-82
2022/08/01 04:42:41;;;;;;;3.30;1.55;;;16.60;99.90;;;;;;5000960;28;20041;-82
2022/08/01 04:45:08;;;;;;;7.47;1.35;;;16.60;99.90;;;;;;5014433;28;20090;-82
2022/08/01 04:47:36;;;;;;;2.67;1.17;;;16.60;99.90;;;;;;4999974;28;20045;-80
2022/08/01 04:50:07;;;;;;;4.15;1.25;;;16.60;99.90;;;;;;5011525;28;20037;-80
2022/08/01 04:52:37;;;;;;;2.33;1.13;;;16.60;99.90;;;;;;4996950;28;20042;-80
2022/08/01 04:55:05;;;;;;;2.75;1.27;;;16.70;99.90;;;;;;5006528;28;20576;-80
2022/08/01 04:57:36;;;;;;;2.95;1.40;;;16.60;99.90;;;;;;4998794;28;20052;-80
2022/08/01 05:00:02;;;;;;;3.05;1.50;;;16.60;99.90;;;;;;5011214;28;20037;-80
2022/08/01 05:02:28;;;;;;;3.33;1.20;;;16.60;99.90;;;;;;5010759;28;20049;-80
2022/08/01 05:04:55;;;;;;;3.85;1.38;;;16.60;99.90;;;;;;5013860;28;20037;-82
2022/08/01 05:07:21;;;;;;;4.50;2.47;;;16.60;99.90;;;;;;5013484;28;20045;-82
2022/08/01 05:09:47;;;;;;;4.63;1.42;;;16.60;99.90;;;;;;5013186;28;20037;-82
2022/08/01 05:12:13;;;;;;;3.35;1.40;;;16.60;99.90;;;;;;4999923;28;20120;-82
2022/08/01 05:14:39;;;;;;;3.95;1.50;;;16.70;99.90;;;;;;4996362;28;20100;-81
2022/08/01 05:17:06;;;;;;;6.63;1.75;;;16.60;99.90;;;;;;5012850;28;20034;-82
2022/08/01 05:19:37;;;;;;;5.93;1.38;;;16.60;99.90;;;;;;5015757;28;20483;-82
2022/08/01 05:22:05;;;;;;;3.53;1.52;;;16.60;99.90;;;;;;4991452;28;20051;-80
2022/08/01 05:24:31;;;;;;;1.77;0.95;;;16.60;99.90;;;;;;5008786;28;20037;-80
2022/08/01 05:26:58;;;;;;;2.40;1.40;;;16.60;99.90;;;;;;5014993;28;20057;-80
2022/08/01 05:29:24;;;;;;;3.45;1.20;;;16.60;99.90;;;;;;4996011;28;20045;-80
2022/08/01 05:31:51;;;;;;;4.45;1.58;;;16.60;99.90;;;;;;5010793;28;20120;-80
2022/08/01 05:34:16;;;;;;;2.38;1.40;;;16.70;99.90;;;;;;5015759;28;20045;-80
2022/08/01 05:36:42;;;;;;;2.65;1.27;;;16.60;99.90;;;;;;5015729;28;20052;-80
2022/08/01 05:39:08;;;;;;;5.10;1.48;;;16.60;99.90;;;;;;5015521;28;20099;-79
2022/08/01 05:41:36;;;;;;;4.07;1.42;;;16.60;99.90;;;;;;5014314;28;20120;-79
2022/08/01 05:44:02;;;;;;;5.32;1.50;;;16.70;99.90;;;;;;4999059;28;20042;-79
2022/08/01 05:46:28;;;;;;;2.47;1.00;;;16.70;99.90;;;;;;4999506;28;20064;-79
2022/08/01 05:48:53;;;;;;;4.75;1.30;;;16.70;99.90;;;;;;4999853;28;20480;-79
2022/08/01 05:51:19;;;;;;;6.55;1.38;;;16.80;99.90;;;;;;4997072;28;20053;-79
2022/08/01 05:53:45;;;;;;;3.88;1.05;;;16.80;99.90;;;;;;5014995;28;20045;-79
2022/08/01 05:56:10;;;;;;;3.97;1.70;;;16.70;99.90;;;;;;5013991;28;20045;-80
2022/08/01 05:58:36;;;;;;;5.95;1.38;;;16.80;99.90;;;;;;4996336;28;20038;-79
2022/08/01 06:01:02;;;;;;;4.47;1.60;;;16.90;99.90;;;;;;4996793;28;20041;-79
2022/08/01 06:03:30;;;;;;;3.10;1.20;;;16.90;99.90;;;;;;5014514;28;20072;-79
2022/08/01 06:05:57;;;;;;;2.08;1.10;;;16.90;99.90;;;;;;5006855;28;20072;-79
2022/08/01 06:08:22;;;;;;;6.55;1.35;;;16.90;99.90;;;;;;4999033;28;20042;-79
2022/08/01 06:10:48;;;;;;;4.00;1.38;;;17.00;99.90;;;;;;5013100;28;20068;-80
2022/08/01 06:13:14;;;;;;;4.47;1.13;;;17.00;99.90;;;;;;4997712;28;20083;-80
2022/08/01 06:15:40;;;;;;;4.25;1.30;;;17.00;99.90;;;;;;5011022;28;20053;-80
2022/08/01 06:18:06;;;;;;;3.65;1.60;;;17.10;99.90;;;;;;5007900;28;20488;-81
2022/08/01 06:20:31;;;;;;;3.88;1.27;;;17.10;99.90;;;;;;5013049;28;20034;-80
2022/08/01 06:22:57;;;;;;;7.55;1.80;;;17.20;99.90;;;;;;4996765;28;20064;-80
2022/08/01 06:25:23;;;;;;;6.35;1.95;;;17.30;99.90;;;;;;4998963;28;20049;-80
2022/08/01 06:27:49;;;;;;;2.40;1.08;;;17.40;99.90;;;;;;4995949;28;20388;-80
2022/08/01 06:30:15;;;;;;;2.22;1.17;;;17.60;99.90;;;;;;4980037;28;20108;-80
2022/08/01 06:32:41;;;;;;;2.67;1.00;;;17.70;99.90;;;;;;5003709;28;20479;-80
2022/08/01 06:35:07;;;;;;;2.13;1.20;;;17.90;99.90;;;;;;4996743;28;20091;-80
2022/08/01 06:37:33;;;;;;;2.63;1.13;;;18.10;99.90;;;;;;4998802;28;20084;-80
2022/08/01 06:40:08;;;;;;;8.65;1.75;;;18.20;99.90;;;;;;4997426;28;20076;-79
2022/08/01 06:42:37;;;;;;;4.70;1.20;;;18.40;99.90;;;;;;5006656;28;20120;-80
2022/08/01 06:45:09;;;;;;;3.83;1.15;;;18.60;99.90;;;;;;4999189;28;20731;-80
2022/08/01 06:47:35;;;;;;;26.65;2.55;;;18.80;99.90;;;;;;5012855;28;20081;-80
2022/08/01 06:50:03;;;;;;;5.47;1.50;;;19.10;99.90;;;;;;5005461;28;20038;-80
2022/08/01 06:52:28;;;;;;;5.45;1.60;;;19.40;99.90;;;;;;4998572;28;20045;-80
2022/08/01 06:54:54;;;;;;;4.65;1.25;;;20.10;99.90;;;;;;4996058;28;20400;-80
2022/08/01 06:57:20;;;;;;;3.72;1.13;;;20.40;99.90;;;;;;5002140;28;20124;-80
2022/08/01 06:59:46;;;;;;;2.17;1.05;;;20.40;99.90;;;;;;5001298;28;20052;-82
2022/08/01 07:02:11;;;;;;;4.68;1.20;;;20.20;99.90;;;;;;5002062;28;20060;-82
2022/08/01 07:04:37;;;;;;;6.05;1.67;;;20.10;99.90;;;;;;5001424;28;20033;-82
2022/08/01 07:07:03;;;;;;;3.00;1.00;;;20.10;99.90;;;;;;5009676;28;20401;-82
2022/08/01 07:09:28;;;;;;;5.13;0.90;;;20.10;99.90;;;;;;4967075;28;20038;-82
2022/08/01 07:11:55;;;;;;;4.90;1.33;;;20.10;99.90;;;;;;5014663;28;20046;-82
2022/08/01 07:14:22;;;;;;;4.22;1.50;;;20.30;99.90;;;;;;5048096;23;20121;-79
2022/08/01 07:16:48;;;;;;;2.97;2.05;;;21.00;99.90;;;;;;5087624;28;20033;-82
2022/08/01 07:19:13;;;;;;;3.97;1.65;;;21.60;99.90;;;;;;5071896;28;20492;-82
2022/08/01 07:21:40;;;;;;;2.63;1.10;;;22.50;99.90;;;;;;5065050;28;20081;-83
2022/08/01 07:24:11;;;;;;;2.35;1.10;;;23.70;99.90;;;;;;5079356;28;20643;-82
2022/08/01 07:26:36;;;;;;;4.13;1.40;;;24.30;99.90;;;;;;5077875;28;20105;-82
2022/08/01 07:29:02;;;;;;;2.15;0.80;;;24.30;99.90;;;;;;5080012;28;20030;-82
2022/08/01 07:31:28;;;;;;;5.63;1.10;;;24.20;99.90;;;;;;5065992;28;20081;-82
2022/08/01 07:33:54;;;;;;;2.50;0.98;;;24.40;99.90;;;;;;5071995;28;20040;-80
2022/08/01 07:36:20;;;;;;;3.58;1.17;;;25.50;99.90;;;;;;5092582;28;20069;-80
2022/08/01 07:38:46;;;;;;;5.03;1.30;;;26.60;99.90;;;;;;5074832;28;20123;-82
2022/08/01 07:41:12;;;;;;;1.27;0.93;;;27.60;98.30;;;;;;5083598;28;20171;-82
2022/08/01 07:43:37;;;;;;;4.55;1.48;;;28.00;95.70;;;;;;5081535;28;20115;-82
2022/08/01 07:46:04;;;;;;;3.92;1.08;;;29.00;97.60;;;;;;5066760;28;20047;-83
2022/08/01 07:48:30;;;;;;;4.95;1.02;;;29.30;95.20;;;;;;5093472;28;20044;-82
2022/08/01 07:50:55;;;;;;;3.47;0.88;;;30.00;92.90;;;;;;5092565;28;20058;-82
2022/08/01 07:53:22;;;;;;;3.03;1.15;;;30.20;91.90;;;;;;5092252;28;20161;-82
2022/08/01 07:55:48;;;;;;;2.47;0.75;;;30.90;91.40;;;;;;5074548;28;20122;-82
2022/08/01 07:58:14;;;;;;;3.70;0.73;;;31.10;90.80;;;;;;5096567;28;20491;-83
2022/08/01 08:00:40;;;;;;;2.72;0.80;;;31.30;90.00;;;;;;5070195;28;20043;-82
2022/08/01 08:03:06;;;;;;;2.28;1.02;;;31.50;87.60;;;;;;5077507;28;20122;-82
2022/08/01 08:05:34;;;;;;;1.90;0.80;;;31.90;88.00;;;;;;5051766;28;20439;-82
2022/08/01 08:08:13;;;;;;;2.85;1.00;;;31.90;86.30;;;;;;5098029;28;20150;-86
2022/08/01 08:10:39;;;;;;;5.22;1.17;;;32.10;87.00;;;;;;5063966;28;20085;-84
2022/08/01 08:13:05;;;;;;;5.35;1.20;;;32.20;84.70;;;;;;5087652;28;20474;-83
2022/08/01 08:15:31;;;;;;;3.25;1.10;;;32.30;84.70;;;;;;5045456;28;20055;-82
2022/08/01 08:17:56;;;;;;;5.38;1.92;;;32.20;82.20;;;;;;5088292;28;20079;-82
2022/08/01 08:20:24;;;;;;;4.10;1.13;;;31.60;81.10;;;;;;5090477;28;20039;-82
2022/08/01 08:22:51;;;;;;;3.40;0.80;;;31.40;84.60;;;;;;5049344;28;20048;-82
2022/08/01 08:25:18;;;;;;;4.85;0.80;;;31.70;81.80;;;;;;5061306;28;20040;-83
2022/08/01 08:27:45;;;;;;;2.33;1.05;;;31.70;82.20;;;;;;5096153;28;20509;-83
2022/08/01 08:30:12;;;;;;;3.50;1.00;;;31.70;83.60;;;;;;5095164;28;20035;-83
2022/08/01 08:32:37;;;;;;;2.72;1.00;;;31.30;81.50;;;;;;5076697;28;20362;-83
2022/08/01 08:35:05;;;;;;;3.00;1.10;;;31.10;82.80;;;;;;5060019;28;20050;-83
2022/08/01 08:37:30;;;;;;;2.35;0.95;;;31.10;83.30;;;;;;5079685;28;20047;-82
2022/08/01 08:39:56;;;;;;;3.30;1.00;;;31.20;84.40;;;;;;5059890;28;20063;-82
2022/08/01 08:42:22;;;;;;;2.08;1.10;;;31.50;81.70;;;;;;5075965;28;20502;-83
2022/08/01 08:44:48;;;;;;;1.92;0.95;;;31.80;81.30;;;;;;5059715;28;20088;-82
2022/08/01 08:47:15;;;;;;;4.88;1.80;;;32.10;82.80;;;;;;5082425;28;20088;-82
2022/08/01 08:49:43;;;;;;;5.65;1.20;;;31.60;80.60;;;;;;5089665;28;20051;-82
2022/08/01 08:52:10;;;;;;;5.82;1.92;;;30.20;80.40;;;;;;5080973;28;20074;-83
2022/08/01 08:54:40;;;;;;;2.47;0.82;;;29.40;83.20;;;;;;5079994;28;20386;-82
2022/08/01 08:57:06;;;;;;;3.28;0.80;;;29.10;84.00;;;;;;5080202;28;20105;-83
2022/08/01 08:59:32;;;;;;;3.65;1.20;;;28.80;84.50;;;;;;5096872;28;20054;-83
2022/08/01 09:01:58;;;;;;;5.30;1.20;;;28.60;84.50;;;;;;5093913;28;20044;-82
2022/08/01 09:04:25;;;;;;;2.88;0.68;;;27.90;83.60;;;;;;5090632;28;20040;-83
2022/08/01 09:06:51;;;;;;;4.10;1.00;;;27.90;86.30;;;;;;5096346;28;20050;-83
2022/08/01 09:09:17;;;;;;;3.35;1.00;;;28.30;83.00;;;;;;5096366;28;20049;-83
2022/08/01 09:11:43;;;;;;;5.38;1.38;;;28.80;82.60;;;;;;5096579;28;20109;-83
2022/08/01 09:14:13;;;;;;;4.00;1.33;;;28.90;82.70;;;;;;5093892;28;20035;-82
2022/08/01 09:16:42;;;;;;;2.72;1.00;;;28.70;83.70;;;;;;5096212;28;20048;-83
2022/08/01 09:19:10;;;;;;;4.20;1.02;;;29.00;81.00;;;;;;5096225;28;20083;-82
2022/08/01 09:21:36;;;;;;;2.55;0.98;;;28.80;83.40;;;;;;5095509;28;20044;-82
2022/08/01 09:24:05;;;;;;;2.65;0.88;;;28.20;83.30;;;;;;5077737;28;20145;-83
2022/08/01 09:26:35;;;;;;;1.25;0.50;;;27.80;81.60;;;;;;5088326;28;20054;-82
2022/08/01 09:29:07;;;;;;;3.38;1.20;;;27.80;84.40;;;;;;5086050;28;20043;-82
2022/08/01 09:31:44;;;;;;;3.67;1.30;;;28.50;86.20;;;;;;5083091;28;20059;-80
2022/08/01 09:34:10;;;;;;;4.57;1.00;;;29.50;83.50;;;;;;5084093;28;20044;-80
2022/08/01 09:36:56;;;;;;;2.13;0.85;;;29.90;82.10;;;;;;5085174;28;20358;-80
2022/08/01 09:39:36;;;;;;;2.88;0.93;;;29.30;78.60;;;;;;5066361;28;20045;-80
2022/08/01 09:42:19;;;;;;;3.65;0.85;;;28.70;79.50;;;;;;5080099;28;20047;-80
2022/08/01 09:44:45;;;;;;;2.15;1.13;;;28.70;82.60;;;;;;5095250;28;20044;-80
2022/08/01 09:47:13;;;;;;;2.53;1.02;;;28.60;82.00;;;;;;5058746;28;20040;-80
2022/08/01 09:49:40;;;;;;;1.25;0.57;;;28.60;80.00;;;;;;5075675;28;20044;-80
2022/08/01 09:52:13;;;;;;;2.78;1.25;;;29.10;82.30;;;;;;5075621;28;20131;-80
2022/08/01 09:54:40;;;;;;;2.65;1.38;;;29.10;80.50;;;;;;5075799;28;20529;-80
2022/08/01 09:57:15;;;;;;;1.75;0.70;;;28.70;81.40;;;;;;5087487;28;20489;-80
2022/08/01 09:59:44;;;;;;;4.63;0.80;;;28.60;82.70;;;;;;5095116;28;20419;-80
2022/08/01 10:02:15;;;;;;;3.33;0.93;;;29.20;83.00;;;;;;5074658;28;20048;-80
2022/08/01 10:04:51;;;;;;;2.95;0.93;;;29.70;79.10;;;;;;5059348;28;20096;-82
2022/08/01 10:07:18;;;;;;;4.20;0.98;;;29.40;78.80;;;;;;5077178;28;20044;-82
2022/08/01 10:09:45;;;;;;;1.23;0.57;;;29.50;83.00;;;;;;5086599;28;20031;-83
2022/08/01 10:12:13;;;;;;;1.58;0.52;;;30.30;78.30;;;;;;5095812;28;20069;-83
2022/08/01 10:14:40;;;;;;;2.60;1.15;;;31.20;77.90;;;;;;5068365;28;20048;-83
2022/08/01 10:17:09;;;;;;;2.40;0.75;;;31.40;76.80;;;;;;5077886;28;20445;-83
2022/08/01 10:19:37;;;;;;;2.40;0.82;;;31.50;75.70;;;;;;5077721;28;20044;-83
2022/08/01 10:22:07;;;;;;;3.50;0.98;;;31.30;74.50;;;;;;5076137;28;20363;-80
2022/08/01 10:24:38;;;;;;;2.88;1.00;;;31.00;75.20;;;;;;5059073;28;20119;-80
2022/08/01 10:27:06;;;;;;;2.63;0.50;;;31.20;76.40;;;;;;5085848;28;20045;-80
2022/08/01 10:29:56;;;;;;;4.50;1.10;;;31.60;73.60;;;;;;5078314;28;20052;-80
2022/08/01 10:32:22;;;;;;;3.10;1.08;;;31.70;75.60;;;;;;5076643;28;20040;-80
2022/08/01 10:34:49;;;;;;;2.97;0.82;;;31.50;74.70;;;;;;5095794;28;20044;-80
2022/08/01 10:37:16;;;;;;;3.58;0.80;;;30.70;76.30;;;;;;5070763;28;20120;-80
2022/08/01 10:39:43;;;;;;;4.50;1.33;;;29.90;77.00;;;;;;5083799;28;20043;-80
2022/08/01 10:42:11;;;;;;;3.20;1.02;;;30.10;75.90;;;;;;5055857;28;20047;-80
2022/08/01 10:44:38;;;;;;;2.45;1.15;;;30.20;75.90;;;;;;5067833;28;20040;-81
2022/08/01 10:47:11;;;;;;;2.17;0.57;;;30.40;75.90;;;;;;5088396;28;20044;-80
2022/08/01 10:49:59;;;;;;;1.52;0.65;;;30.50;74.00;;;;;;5092187;28;20494;-80
2022/08/01 10:52:25;;;;;;;4.15;1.17;;;30.90;74.70;;;;;;5074540;28;20064;-81
2022/08/01 10:55:03;;;;;;;2.28;0.60;;;31.10;75.70;;;;;;5092124;28;20075;-80
2022/08/01 10:57:46;;;;;;;1.50;0.77;;;31.40;76.40;;;;;;5095207;28;20090;-81
2022/08/01 11:00:19;;;;;;;1.23;0.55;;;31.00;74.00;;;;;;5075070;28;20056;-80
2022/08/01 11:03:11;;;;;;;3.92;0.82;;;31.30;74.50;;;;;;5058234;28;20052;-80
2022/08/01 11:05:42;;;;;;;6.05;0.90;;;31.00;73.90;;;;;;5056071;28;20494;-80
2022/08/01 11:08:21;;;;;;;4.38;1.02;;;31.00;75.20;;;;;;5088360;28;20420;-80
2022/08/01 11:10:47;;;;;;;2.67;0.90;;;30.40;75.50;;;;;;5076629;28;20037;-80
2022/08/01 11:13:13;;;;;;;3.45;1.00;;;29.70;76.10;;;;;;5060991;28;20127;-81
2022/08/01 11:15:40;;;;;;;4.60;0.95;;;29.00;77.20;;;;;;5081926;28;20132;-80
2022/08/01 11:18:27;;;;;;;0.85;0.50;;;28.60;78.30;;;;;;5084736;28;20398;-80
2022/08/01 11:20:59;;;;;;;1.52;0.60;;;29.20;78.00;;;;;;5074741;28;20048;-80
2022/08/01 11:23:46;;;;;;;1.20;0.68;;;29.70;76.50;;;;;;5089948;28;20089;-80
2022/08/01 11:26:12;;;;;;;1.85;0.70;;;29.80;77.40;;;;;;5076362;28;20101;-80
2022/08/01 11:28:39;;;;;;;1.35;0.65;;;29.70;76.60;;;;;;5095149;28;20118;-83
2022/08/01 11:31:08;;;;;;;0.88;0.50;;;29.80;74.70;;;;;;5094882;28;20063;-83
2022/08/01 11:33:40;;;;;;;2.50;0.95;;;29.20;75.00;;;;;;5080020;28;20042;-83
2022/08/01 11:38:46;;;;;;;1.20;0.50;;;29.30;74.50;;;;;;5074710;28;20127;-83
2022/08/01 11:41:26;;;;;;;2.30;0.90;;;29.50;74.30;;;;;;5074241;28;20032;-83
2022/08/01 11:43:58;;;;;;;3.80;0.93;;;29.40;72.50;;;;;;5088196;28;20043;-81
2022/08/01 11:46:55;;;;;;;3.50;1.17;;;29.30;75.30;;;;;;5094460;28;20040;-80
2022/08/01 11:49:36;;;;;;;1.05;0.80;;;29.30;75.60;;;;;;5094617;28;20040;-80
2022/08/01 11:52:07;;;;;;;2.28;0.90;;;29.00;76.90;;;;;;5094593;28;20040;-80
2022/08/01 11:54:36;;;;;;;2.15;1.00;;;29.00;74.10;;;;;;5076513;28;20067;-81
2022/08/01 11:57:06;;;;;;;0.82;0.57;;;28.70;74.30;;;;;;5088486;28;20040;-80
2022/08/01 11:59:48;;;;;;;2.30;0.80;;;28.40;76.00;;;;;;5094188;28;20047;-81
2022/08/01 12:02:18;;;;;;;1.33;0.60;;;28.30;74.30;;;;;;5093068;28;20043;-80
2022/08/01 12:04:53;;;;;;;0.90;0.57;;;28.10;76.20;;;;;;5063352;28;20101;-80
2022/08/01 12:07:19;;;;;;;0.87;0.50;;;28.10;75.70;;;;;;5073244;28;20508;-80
2022/08/01 12:09:46;;;;;;;1.90;0.70;;;28.20;76.50;;;;;;5074503;28;20483;-80
2022/08/01 12:12:16;;;;;;;1.75;0.65;;;28.20;76.00;;;;;;5073026;28;20033;-80
2022/08/01 12:14:43;;;;;;;2.63;1.00;;;28.20;75.90;;;;;;5078620;28;20325;-80
2022/08/01 12:17:08;;;;;;;2.20;0.82;;;28.20;77.00;;;;;;5085456;28;20044;-80
2022/08/01 12:19:36;;;;;;;2.42;0.70;;;28.10;76.90;;;;;;5058050;28;20043;-80
2022/08/01 12:22:12;;;;;;;2.00;0.60;;;27.70;75.20;;;;;;5073351;28;20049;-80
2022/08/01 12:24:41;;;;;;;1.70;0.90;;;27.70;74.60;;;;;;5058904;28;20066;-80
2022/08/01 12:27:09;;;;;;;4.55;0.85;;;27.50;77.10;;;;;;5087516;28;20109;-80
2022/08/01 12:29:43;;;;;;;2.13;1.23;;;27.40;75.20;;;;;;5067325;28;20037;-80
2022/08/01 12:32:33;;;;;;;2.05;0.73;;;27.20;76.60;;;;;;5073483;28;20380;-80
2022/08/01 12:35:10;;;;;;;4.07;1.13;;;27.10;76.20;;;;;;5057488;28;20045;-80
2022/08/01 12:37:37;;;;;;;1.85;0.80;;;27.10;78.10;;;;;;5076093;28;20189;-80
2022/08/01 12:40:23;;;;;;;2.50;0.65;;;27.10;78.60;;;;;;5092807;28;20048;-81
2022/08/01 12:42:54;;;;;;;2.08;0.77;;;27.30;78.10;;;;;;5093258;28;20501;-81
2022/08/01 12:45:26;;;;;;;1.52;0.30;;;27.20;78.20;;;;;;5077068;28;20376;-80
2022/08/01 12:47:57;;;;;;;2.45;0.60;;;27.20;76.30;;;;;;5076260;28;20044;-81
2022/08/01 12:50:25;;;;;;;2.33;0.68;;;27.00;74.00;;;;;;5083680;28;20041;-84
2022/08/01 12:52:51;;;;;;;4.07;0.80;;;26.60;78.40;;;;;;5056811;28;20379;-84
2022/08/01 12:55:19;;;;;;;2.55;0.95;;;26.40;77.80;;;;;;5062355;28;21605;-84
2022/08/01 12:57:52;;;;;;;3.90;0.75;;;26.30;78.40;;;;;;5080119;28;20040;-84
2022/08/01 13:00:24;;;;;;;1.75;0.55;;;26.40;78.90;;;;;;5077474;28;20388;-84